Time;durP1;ratioP1;P1;durP2;ratioP2;P2;SDS_P1;SDS_P2;PMS_P1;PMS_P2;Temp;Humidity;BMP_temperature;BMP_pressure;BME280_temperature;BME280_humidity;BME280_pressure;Samples;Min_cycle;Max_cycle;Signal;HPM_P1;HPM_P2
2022/01/22 05:02:38;;;;;;;18.13;3.55;;;6.20;99.90;;;;;;4993111;23;20046;-81
2022/01/22 05:05:05;;;;;;;15.73;2.85;;;6.20;99.90;;;;;;4976806;28;20051;-81
2022/01/22 05:07:30;;;;;;;18.05;3.45;;;6.20;99.90;;;;;;4976694;28;20043;-81
2022/01/22 05:09:56;;;;;;;16.02;3.70;;;6.20;99.90;;;;;;4961114;28;20038;-81
2022/01/22 05:12:22;;;;;;;21.40;2.97;;;6.20;99.90;;;;;;4977938;28;20035;-83
2022/01/22 05:14:48;;;;;;;19.63;3.95;;;6.10;99.90;;;;;;4977868;28;20043;-81
2022/01/22 05:17:14;;;;;;;15.60;2.90;;;6.20;99.90;;;;;;4977849;28;20442;-83
2022/01/22 05:22:19;;;;;;;17.73;3.63;;;6.20;99.90;;;;;;4976609;28;20125;-85
2022/01/22 05:24:49;;;;;;;21.52;4.25;;;6.20;99.90;;;;;;4976767;28;20422;-83
2022/01/22 05:38:00;;;;;;;14.95;3.55;;;6.30;99.90;;;;;;4933882;28;20487;-84
2022/01/22 05:40:27;;;;;;;20.33;3.30;;;6.30;99.90;;;;;;4960186;28;20035;-81
2022/01/22 05:42:53;;;;;;;13.95;3.13;;;6.20;99.90;;;;;;4976071;28;20043;-84
2022/01/22 05:45:18;;;;;;;16.58;3.60;;;6.30;99.90;;;;;;4976335;28;20081;-83
2022/01/22 05:47:45;;;;;;;10.30;2.58;;;6.20;99.90;;;;;;4976566;28;20098;-84
2022/01/22 05:50:24;;;;;;;10.50;2.50;;;6.20;99.90;;;;;;4975839;28;20043;-83
2022/01/22 05:52:56;;;;;;;11.23;2.92;;;6.30;99.90;;;;;;4975891;28;20053;-82
2022/01/22 05:59:35;;;;;;;12.18;3.08;;;6.30;99.90;;;;;;4976895;28;20348;-83
2022/01/22 06:00:58;;;;;;;14.48;2.95;;;6.30;99.90;;;;;;4975601;28;20074;-85
2022/01/22 06:03:23;;;;;;;14.43;2.72;;;6.30;99.90;;;;;;4975701;28;20081;-83
2022/01/22 06:05:49;;;;;;;12.30;2.72;;;6.30;99.90;;;;;;4975688;28;20454;-82
2022/01/22 06:08:16;;;;;;;15.57;3.40;;;6.20;99.90;;;;;;4959677;28;20042;-83
2022/01/22 06:10:45;;;;;;;17.23;3.38;;;6.30;99.90;;;;;;4975525;28;20051;-81
2022/01/22 06:13:14;;;;;;;15.48;3.20;;;6.20;99.90;;;;;;4959827;28;20391;-81
2022/01/22 06:15:40;;;;;;;22.42;3.78;;;6.30;99.90;;;;;;4976987;28;20387;-83
2022/01/22 06:18:06;;;;;;;20.10;2.65;;;6.20;99.90;;;;;;4975451;28;20043;-84
2022/01/22 06:20:32;;;;;;;14.38;3.00;;;6.20;99.90;;;;;;4959291;28;20050;-82
2022/01/22 06:22:58;;;;;;;16.38;3.45;;;6.20;99.90;;;;;;4975505;28;20072;-83
2022/01/22 06:25:24;;;;;;;18.25;3.30;;;6.20;99.90;;;;;;4959176;28;20110;-81
2022/01/22 06:27:50;;;;;;;15.80;3.05;;;6.20;99.90;;;;;;4975302;28;20039;-81
2022/01/22 06:30:15;;;;;;;17.27;3.15;;;6.20;99.90;;;;;;4959430;28;20066;-84
2022/01/22 06:32:41;;;;;;;15.60;2.95;;;6.20;99.90;;;;;;4959283;28;20047;-82
2022/01/22 06:35:07;;;;;;;20.85;3.00;;;6.20;99.90;;;;;;4975017;28;20038;-83
2022/01/22 06:37:33;;;;;;;16.08;3.30;;;6.20;99.90;;;;;;4975182;28;20085;-84
2022/01/22 06:42:47;;;;;;;9.07;2.25;;;6.20;99.90;;;;;;4939308;28;20130;-81
2022/01/22 06:45:12;;;;;;;10.52;2.50;;;6.20;99.90;;;;;;4974857;28;20506;-83
2022/01/22 06:47:39;;;;;;;13.57;2.90;;;6.10;99.90;;;;;;4975400;28;20073;-84
2022/01/22 06:50:05;;;;;;;15.88;3.08;;;6.10;99.90;;;;;;4958970;28;20122;-83
2022/01/22 06:52:31;;;;;;;17.63;3.45;;;6.10;99.90;;;;;;4975261;28;20073;-84
2022/01/22 06:54:57;;;;;;;21.15;3.58;;;6.10;99.90;;;;;;4974881;28;20049;-81
2022/01/22 06:57:23;;;;;;;11.60;2.63;;;6.10;99.90;;;;;;4974625;28;20096;-81
2022/01/22 06:59:49;;;;;;;10.82;2.65;;;6.10;99.90;;;;;;4974469;28;20046;-81
2022/01/22 07:02:15;;;;;;;10.63;2.00;;;6.00;99.90;;;;;;4974535;28;20062;-84
2022/01/22 07:04:40;;;;;;;10.75;2.40;;;6.00;99.90;;;;;;4974716;28;20042;-85
2022/01/22 07:07:09;;;;;;;14.45;3.08;;;6.00;99.90;;;;;;4974793;28;20053;-82
2022/01/22 07:09:36;;;;;;;9.93;1.85;;;6.00;99.90;;;;;;4974977;28;20077;-86
2022/01/22 07:12:03;;;;;;;7.47;2.20;;;6.00;99.90;;;;;;4974808;28;20047;-83
2022/01/22 07:14:29;;;;;;;4.85;1.48;;;6.00;99.90;;;;;;4974273;28;20046;-87
2022/01/22 07:16:55;;;;;;;9.63;1.73;;;6.00;99.90;;;;;;4974679;28;20050;-87
2022/01/22 07:19:21;;;;;;;8.30;1.60;;;5.90;99.90;;;;;;4958606;28;20042;-85
2022/01/22 07:21:56;;;;;;;7.40;1.45;;;5.90;99.90;;;;;;4974715;28;20545;-84
2022/01/22 07:24:26;;;;;;;7.53;1.83;;;6.00;99.90;;;;;;4958769;28;20097;-84
2022/01/22 07:26:53;;;;;;;11.88;2.08;;;5.90;99.90;;;;;;4974483;28;20082;-85
2022/01/22 07:29:20;;;;;;;9.80;2.15;;;5.90;99.90;;;;;;4974130;28;20551;-82
2022/01/22 07:31:46;;;;;;;12.82;2.47;;;5.90;99.90;;;;;;4973831;28;20054;-85
2022/01/22 07:34:12;;;;;;;11.85;1.90;;;5.90;99.90;;;;;;4975452;28;20046;-83
2022/01/22 07:36:38;;;;;;;9.32;2.20;;;5.90;99.90;;;;;;4974198;28;20050;-83
2022/01/22 07:39:13;;;;;;;8.32;2.08;;;5.90;99.90;;;;;;4973747;28;20084;-85
2022/01/22 07:41:39;;;;;;;9.98;2.53;;;5.90;99.90;;;;;;4973796;28;20034;-83
2022/01/22 07:44:05;;;;;;;9.50;1.85;;;5.90;99.90;;;;;;4980685;28;20054;-85
2022/01/22 07:46:30;;;;;;;8.75;1.55;;;5.90;99.90;;;;;;4987314;28;20043;-86
2022/01/22 07:48:56;;;;;;;9.27;2.15;;;5.90;99.90;;;;;;4979370;28;20074;-79
2022/01/22 07:51:22;;;;;;;11.75;2.10;;;5.90;99.90;;;;;;4975050;28;20088;-85
2022/01/22 07:53:47;;;;;;;13.55;2.10;;;5.90;99.90;;;;;;4974231;28;20049;-83
2022/01/22 07:56:13;;;;;;;13.13;2.40;;;5.90;99.90;;;;;;4974033;28;20043;-83
2022/01/22 07:58:39;;;;;;;11.57;2.38;;;5.90;99.90;;;;;;4957603;28;20045;-85
2022/01/22 08:01:05;;;;;;;14.02;2.75;;;5.90;99.90;;;;;;4974868;28;20042;-84
2022/01/22 08:03:31;;;;;;;13.52;2.97;;;5.90;99.90;;;;;;4973507;28;20069;-83
2022/01/22 08:05:57;;;;;;;12.98;2.50;;;5.90;99.90;;;;;;4973355;28;20126;-84
2022/01/22 08:08:22;;;;;;;8.52;2.25;;;5.90;99.90;;;;;;4973985;28;20046;-84
2022/01/22 08:10:48;;;;;;;16.17;2.55;;;5.90;99.90;;;;;;4972987;28;20125;-82
2022/01/22 08:13:14;;;;;;;8.25;2.35;;;5.90;99.90;;;;;;4973044;28;20042;-85
2022/01/22 08:15:40;;;;;;;10.73;2.55;;;6.00;99.90;;;;;;4973728;28;20046;-85
2022/01/22 08:18:07;;;;;;;15.25;2.83;;;6.00;99.90;;;;;;4973638;28;20082;-84
2022/01/22 08:20:34;;;;;;;14.23;3.10;;;6.00;99.90;;;;;;4975002;28;20067;-83
2022/01/22 08:22:59;;;;;;;12.35;3.20;;;6.00;99.90;;;;;;4973321;28;20045;-83
2022/01/22 08:25:25;;;;;;;13.02;3.35;;;6.00;99.90;;;;;;4974320;28;20051;-82
2022/01/22 08:30:33;;;;;;;12.55;3.72;;;6.10;99.90;;;;;;4974600;28;20050;-84
2022/01/22 08:36:02;;;;;;;15.18;3.33;;;6.10;99.90;;;;;;4898897;29;20048;-84
2022/01/22 08:38:29;;;;;;;18.05;2.92;;;6.20;99.90;;;;;;4957845;28;20083;-82
2022/01/22 08:40:56;;;;;;;9.70;3.20;;;6.10;99.90;;;;;;4973895;28;20063;-83
2022/01/22 08:43:22;;;;;;;17.60;2.85;;;6.20;99.90;;;;;;4974542;28;20399;-85
2022/01/22 08:45:49;;;;;;;13.93;2.75;;;6.20;99.90;;;;;;4957321;28;20511;-84
2022/01/22 08:48:16;;;;;;;20.73;3.17;;;6.20;99.90;;;;;;4974822;28;20082;-84
2022/01/22 08:50:42;;;;;;;19.02;3.22;;;6.20;99.90;;;;;;4973999;28;20505;-83
2022/01/22 08:53:07;;;;;;;11.75;3.50;;;6.20;99.90;;;;;;4974225;28;20031;-83
2022/01/22 08:55:33;;;;;;;21.42;3.65;;;6.20;99.90;;;;;;4974271;28;20340;-84
2022/01/22 08:57:59;;;;;;;10.57;3.20;;;6.20;99.90;;;;;;4972834;28;20039;-82
2022/01/22 09:00:24;;;;;;;15.15;3.58;;;6.20;99.90;;;;;;4972786;28;20042;-83
2022/01/22 09:02:50;;;;;;;16.15;3.50;;;6.20;99.90;;;;;;4973790;28;20047;-82
2022/01/22 09:05:16;;;;;;;18.40;3.55;;;6.30;99.90;;;;;;4973378;28;20074;-83
2022/01/22 09:07:46;;;;;;;20.98;6.00;;;6.20;99.90;;;;;;4972650;28;20507;-84
2022/01/22 09:10:13;;;;;;;20.00;4.80;;;6.20;99.90;;;;;;4972575;28;20085;-82
2022/01/22 09:12:39;;;;;;;17.05;4.32;;;6.20;99.90;;;;;;4972662;28;20464;-83
2022/01/22 09:15:05;;;;;;;21.05;5.35;;;6.20;99.90;;;;;;4972856;28;20486;-83
2022/01/22 09:17:31;;;;;;;20.90;4.40;;;6.20;99.90;;;;;;4972518;28;20126;-82
2022/01/22 09:19:58;;;;;;;16.73;3.97;;;6.20;99.90;;;;;;4972620;28;20081;-81
2022/01/22 09:22:25;;;;;;;21.70;4.00;;;6.20;99.90;;;;;;4974534;28;20078;-83
2022/01/22 09:24:52;;;;;;;15.25;3.55;;;6.30;99.90;;;;;;4975940;28;20122;-83
2022/01/22 09:27:18;;;;;;;20.63;5.18;;;6.30;99.90;;;;;;4976323;28;20050;-83
2022/01/22 09:29:44;;;;;;;18.73;7.38;;;6.30;99.90;;;;;;4976468;28;20402;-84
2022/01/22 09:32:10;;;;;;;36.40;14.63;;;6.30;99.90;;;;;;4976194;28;20073;-82
2022/01/22 09:34:36;;;;;;;18.85;5.78;;;6.30;99.90;;;;;;4975966;28;20035;-82
2022/01/22 09:37:02;;;;;;;20.77;4.53;;;6.30;99.90;;;;;;4977481;28;20438;-84
2022/01/22 09:39:28;;;;;;;16.73;4.90;;;6.40;99.90;;;;;;4975933;28;20047;-82
2022/01/22 09:41:54;;;;;;;19.33;6.07;;;6.40;99.90;;;;;;4976078;28;20042;-82
2022/01/22 09:44:19;;;;;;;22.60;6.53;;;6.40;99.90;;;;;;4975847;28;20054;-83
2022/01/22 09:46:46;;;;;;;15.57;4.30;;;6.40;99.90;;;;;;4976898;28;20046;-82
2022/01/22 09:49:12;;;;;;;12.05;3.83;;;6.40;99.90;;;;;;4975624;28;20049;-81
2022/01/22 09:51:39;;;;;;;18.48;4.35;;;6.40;99.90;;;;;;4975483;28;20043;-83
2022/01/22 09:54:10;;;;;;;16.33;5.32;;;6.50;99.90;;;;;;4975495;28;20050;-82
2022/01/22 09:56:36;;;;;;;17.38;4.55;;;6.50;99.90;;;;;;4975594;28;20125;-83
2022/01/22 09:59:02;;;;;;;27.15;5.25;;;6.60;99.90;;;;;;4976712;28;20038;-83
2022/01/22 10:01:35;;;;;;;16.08;4.22;;;6.50;99.90;;;;;;4975329;28;20035;-82
2022/01/22 10:04:03;;;;;;;14.80;4.00;;;6.60;99.90;;;;;;4975308;28;20083;-83
2022/01/22 10:06:31;;;;;;;12.05;3.35;;;6.60;99.90;;;;;;4975582;28;20390;-83
2022/01/22 10:09:15;;;;;;;20.15;4.03;;;6.70;99.90;;;;;;4975318;28;20109;-83
2022/01/22 10:11:42;;;;;;;15.63;3.33;;;6.60;99.90;;;;;;4975254;28;20042;-82
2022/01/22 10:14:10;;;;;;;18.60;4.55;;;6.70;99.90;;;;;;4975186;28;20046;-83
2022/01/22 10:16:38;;;;;;;15.77;3.72;;;6.70;99.90;;;;;;4975451;28;20034;-83
2022/01/22 10:19:24;;;;;;;17.65;4.03;;;6.70;99.90;;;;;;4976692;28;20399;-82
2022/01/22 10:22:01;;;;;;;12.15;3.83;;;6.70;99.90;;;;;;4958931;28;20093;-84
2022/01/22 10:24:39;;;;;;;19.08;4.75;;;6.70;99.90;;;;;;4975285;28;20074;-82
2022/01/22 10:29:56;;;;;;;14.57;5.05;;;6.80;99.90;;;;;;4974939;28;20127;-84
2022/01/22 10:32:30;;;;;;;15.38;5.25;;;6.80;99.90;;;;;;4974735;28;20047;-82
2022/01/22 10:35:04;;;;;;;15.10;5.83;;;6.80;99.90;;;;;;4973970;28;20039;-82
2022/01/22 10:37:30;;;;;;;23.33;6.43;;;6.90;99.90;;;;;;4974838;28;20557;-83
2022/01/22 10:40:17;;;;;;;16.63;4.85;;;6.90;99.90;;;;;;4958742;28;20035;-84
2022/01/22 10:42:42;;;;;;;16.55;5.35;;;6.90;99.90;;;;;;4974925;28;20386;-83
2022/01/22 10:45:12;;;;;;;18.48;5.28;;;6.90;99.90;;;;;;4974876;28;20043;-83
2022/01/22 10:47:38;;;;;;;15.00;4.68;;;6.90;99.90;;;;;;4975534;28;20416;-83
2022/01/22 10:50:21;;;;;;;22.50;5.57;;;6.90;99.90;;;;;;4974787;28;20061;-84
2022/01/22 10:52:52;;;;;;;16.42;5.28;;;7.00;99.90;;;;;;4974607;28;20475;-81
2022/01/22 10:55:19;;;;;;;19.08;5.50;;;7.00;99.90;;;;;;4974894;28;20053;-82
2022/01/22 10:58:09;;;;;;;14.20;4.97;;;7.00;99.90;;;;;;4958387;28;20045;-83
2022/01/22 11:00:35;;;;;;;23.08;6.13;;;7.00;99.90;;;;;;4958004;28;20043;-83
2022/01/22 11:03:21;;;;;;;15.05;5.68;;;7.00;99.90;;;;;;4975685;28;20109;-82
2022/01/22 11:05:47;;;;;;;16.25;6.68;;;7.00;99.90;;;;;;4974199;28;20057;-84
2022/01/22 11:08:13;;;;;;;14.27;4.93;;;7.00;99.90;;;;;;4976007;28;20387;-83
2022/01/22 11:10:43;;;;;;;13.40;4.70;;;7.00;99.90;;;;;;4957916;28;20047;-84
2022/01/22 11:13:08;;;;;;;9.88;4.30;;;7.00;99.90;;;;;;4958642;28;20040;-85
2022/01/22 11:15:35;;;;;;;13.82;4.45;;;7.00;99.90;;;;;;4974136;28;20049;-85
2022/01/22 11:18:01;;;;;;;18.50;4.57;;;7.00;99.90;;;;;;4973970;28;20043;-84
2022/01/22 11:20:28;;;;;;;14.85;5.65;;;7.10;99.90;;;;;;4975136;28;20098;-84
2022/01/22 11:22:54;;;;;;;18.25;5.00;;;7.10;99.90;;;;;;4974043;28;20045;-85
2022/01/22 11:25:21;;;;;;;22.75;5.07;;;7.10;99.90;;;;;;4973835;28;20054;-84
2022/01/22 11:27:47;;;;;;;23.58;5.38;;;7.10;99.90;;;;;;4973803;28;20491;-83
2022/01/22 11:30:16;;;;;;;16.95;3.47;;;7.10;99.90;;;;;;4975237;28;20041;-82
2022/01/22 11:32:52;;;;;;;22.63;4.00;;;7.10;99.90;;;;;;4975183;28;20035;-83
2022/01/22 11:35:44;;;;;;;21.75;4.45;;;7.20;99.90;;;;;;4973592;28;20039;-83
2022/01/22 11:38:15;;;;;;;14.35;3.30;;;7.20;99.90;;;;;;4973820;28;20050;-84
2022/01/22 11:40:41;;;;;;;13.32;3.28;;;7.20;99.90;;;;;;4975575;28;20030;-85
2022/01/22 11:43:11;;;;;;;18.40;3.42;;;7.20;99.90;;;;;;4975222;28;20035;-85
2022/01/22 11:45:42;;;;;;;14.10;2.85;;;7.20;99.90;;;;;;4975367;28;20117;-84
2022/01/22 11:48:25;;;;;;;16.23;3.40;;;7.20;99.90;;;;;;4977169;28;20039;-85
2022/01/22 11:50:54;;;;;;;12.15;3.00;;;7.20;99.90;;;;;;4976477;28;20130;-84
2022/01/22 11:53:46;;;;;;;17.77;3.40;;;7.20;99.90;;;;;;4988351;28;20034;-83
2022/01/22 11:56:12;;;;;;;17.27;3.85;;;7.20;99.90;;;;;;4983598;28;20047;-83
2022/01/22 11:58:56;;;;;;;12.43;3.20;;;7.20;99.90;;;;;;4959329;28;20052;-85
2022/01/22 12:01:53;;;;;;;15.25;3.10;;;7.20;99.90;;;;;;4973900;28;20035;-85
2022/01/22 12:04:24;;;;;;;13.20;4.28;;;7.20;99.90;;;;;;4957256;28;20051;-87
2022/01/22 12:07:02;;;;;;;15.77;3.28;;;7.20;99.90;;;;;;4975275;28;20042;-87
2022/01/22 12:09:51;;;;;;;15.20;3.42;;;7.20;99.90;;;;;;4973590;28;20144;-85
2022/01/22 12:15:12;;;;;;;12.93;2.78;;;7.30;99.90;;;;;;4974680;28;20047;-81
2022/01/22 12:17:47;;;;;;;13.32;2.05;;;7.30;99.90;;;;;;4973672;28;20070;-83
2022/01/22 12:23:06;;;;;;;11.55;3.10;;;7.30;99.90;;;;;;4974076;28;20055;-87
2022/01/22 12:25:31;;;;;;;6.65;2.05;;;7.30;99.90;;;;;;4950407;28;20140;-87
2022/01/22 12:27:58;;;;;;;9.02;2.03;;;7.30;99.90;;;;;;4957181;28;20118;-86
2022/01/22 12:30:45;;;;;;;11.95;2.55;;;7.30;99.90;;;;;;4972283;28;20064;-84
2022/01/22 12:33:32;;;;;;;13.02;2.65;;;7.30;99.90;;;;;;4956510;28;20513;-83
2022/01/22 12:36:00;;;;;;;10.82;2.20;;;7.30;99.90;;;;;;4973278;28;20122;-84
2022/01/22 12:38:46;;;;;;;12.88;1.83;;;7.30;99.90;;;;;;4972853;28;20047;-83
2022/01/22 12:44:30;;;;;;;11.82;1.80;;;7.30;99.90;;;;;;4973065;28;20055;-85
2022/01/22 12:46:59;;;;;;;9.13;2.20;;;7.30;99.90;;;;;;4973087;28;20050;-85
2022/01/22 12:49:29;;;;;;;13.73;2.50;;;7.30;99.90;;;;;;4972863;28;20126;-81
2022/01/22 12:51:56;;;;;;;10.82;2.17;;;7.30;99.90;;;;;;4957630;28;20051;-89
2022/01/22 12:55:39;;;;;;;10.30;2.42;;;7.30;99.90;;;;;;4958062;28;20043;-90
2022/01/22 12:57:50;;;;;;;10.18;2.25;;;7.30;99.90;;;;;;4958078;28;20565;-89
2022/01/22 13:00:18;;;;;;;12.88;3.00;;;7.30;99.90;;;;;;4964313;28;20492;-85
2022/01/22 13:02:46;;;;;;;12.90;3.13;;;7.30;99.90;;;;;;4941166;29;20142;-83
2022/01/22 13:05:14;;;;;;;12.07;2.70;;;7.30;99.90;;;;;;4957499;28;20061;-84
2022/01/22 13:07:46;;;;;;;16.63;4.00;;;7.30;99.90;;;;;;4957596;29;20118;-81
2022/01/22 13:10:12;;;;;;;14.23;3.88;;;7.30;99.90;;;;;;4957453;29;20103;-86
2022/01/22 13:12:43;;;;;;;9.75;3.20;;;7.30;99.90;;;;;;4957981;29;20086;-88
2022/01/22 13:15:11;;;;;;;13.07;3.65;;;7.30;99.90;;;;;;4941713;29;20479;-82
2022/01/22 13:17:38;;;;;;;14.40;2.70;;;7.30;99.90;;;;;;4957245;28;20476;-87
2022/01/22 13:20:07;;;;;;;11.73;2.28;;;7.30;99.90;;;;;;4942552;29;20380;-88
2022/01/22 13:22:36;;;;;;;12.90;2.33;;;7.30;99.90;;;;;;4940924;29;20047;-84
2022/01/22 13:25:10;;;;;;;14.20;2.33;;;7.30;99.90;;;;;;4956852;29;20105;-86
2022/01/22 13:27:38;;;;;;;5.78;1.77;;;7.40;99.90;;;;;;4956826;29;20530;-85
2022/01/22 13:30:07;;;;;;;13.10;2.13;;;7.40;99.90;;;;;;4958327;29;20066;-83
2022/01/22 13:32:59;;;;;;;6.60;2.13;;;7.40;99.90;;;;;;4956543;28;20047;-84
2022/01/22 13:49:13;;;;;;;12.48;1.90;;;7.30;99.90;;;;;;4956285;29;20060;-83
2022/01/22 13:51:40;;;;;;;8.82;1.83;;;7.30;99.90;;;;;;4957751;28;20031;-84
2022/01/22 13:54:06;;;;;;;5.72;1.67;;;7.20;99.90;;;;;;4956198;28;20057;-85
2022/01/22 13:56:56;;;;;;;8.73;1.48;;;7.30;99.90;;;;;;4956141;29;20039;-87
2022/01/22 13:59:34;;;;;;;7.00;1.40;;;7.30;99.90;;;;;;4956437;28;20043;-87
2022/01/22 14:02:14;;;;;;;7.20;1.70;;;7.20;99.90;;;;;;4940788;29;20053;-86
2022/01/22 14:04:48;;;;;;;5.43;1.40;;;7.20;99.90;;;;;;4956016;29;20504;-83
2022/01/22 14:07:16;;;;;;;8.45;1.95;;;7.20;99.90;;;;;;4956767;28;20502;-82
2022/01/22 14:09:54;;;;;;;5.68;1.50;;;7.20;99.90;;;;;;4956819;28;20424;-84
2022/01/22 14:12:20;;;;;;;12.13;1.70;;;7.20;99.90;;;;;;4957275;28;20047;-84
2022/01/22 14:15:05;;;;;;;5.45;1.33;;;7.20;99.90;;;;;;4956092;29;20051;-84
2022/01/22 14:17:38;;;;;;;8.35;1.33;;;7.20;99.90;;;;;;4957926;28;20143;-84
2022/01/22 14:20:10;;;;;;;7.43;1.52;;;7.20;99.90;;;;;;4957272;28;20039;-84
2022/01/22 14:22:58;;;;;;;7.68;1.40;;;7.20;99.90;;;;;;4957255;28;20125;-82
2022/01/22 14:25:25;;;;;;;9.52;1.77;;;7.20;99.90;;;;;;4957326;28;20054;-83
2022/01/22 14:28:04;;;;;;;11.27;1.40;;;7.30;99.90;;;;;;4940428;29;20055;-84
2022/01/22 14:30:34;;;;;;;4.45;1.20;;;7.30;99.90;;;;;;4958244;28;20090;-88
2022/01/22 14:33:00;;;;;;;7.97;1.75;;;7.30;99.90;;;;;;4939917;29;20505;-84
2022/01/22 14:35:26;;;;;;;10.85;1.50;;;7.40;99.90;;;;;;4957584;28;20051;-85
2022/01/22 14:37:54;;;;;;;11.55;1.75;;;7.40;99.90;;;;;;4955980;28;20102;-85
2022/01/22 14:45:57;;;;;;;10.63;2.10;;;7.20;99.90;;;;;;4956855;29;20051;-86
2022/01/22 14:48:23;;;;;;;6.68;1.50;;;7.10;99.90;;;;;;4939645;29;20047;-85
2022/01/22 14:50:49;;;;;;;8.88;1.40;;;7.10;99.90;;;;;;4939438;29;20069;-86
2022/01/22 14:53:14;;;;;;;7.63;1.23;;;7.00;99.90;;;;;;4939359;29;20044;-84
2022/01/22 14:55:49;;;;;;;11.07;2.38;;;7.00;99.90;;;;;;4955694;29;20066;-88
2022/01/22 14:58:15;;;;;;;12.00;1.80;;;7.00;99.90;;;;;;4940015;29;20119;-89
2022/01/22 15:00:40;;;;;;;8.43;1.50;;;7.00;99.90;;;;;;4939568;29;20793;-89
2022/01/22 15:03:06;;;;;;;6.75;1.67;;;6.90;99.90;;;;;;4956164;28;20137;-89
2022/01/22 15:05:32;;;;;;;9.02;1.75;;;6.90;99.90;;;;;;4956045;29;20043;-88
2022/01/22 15:07:58;;;;;;;9.15;2.25;;;6.90;99.90;;;;;;4955620;28;20079;-89
2022/01/22 15:10:25;;;;;;;6.95;1.90;;;6.90;99.90;;;;;;4939759;29;20456;-89
2022/01/22 15:12:51;;;;;;;8.85;2.50;;;6.80;99.90;;;;;;4939439;29;20045;-89
2022/01/22 15:15:19;;;;;;;14.32;2.90;;;6.80;99.90;;;;;;4956059;29;20039;-89
2022/01/22 15:20:14;;;;;;;9.10;3.47;;;6.70;99.90;;;;;;4974475;28;20174;-89
2022/01/22 15:22:40;;;;;;;12.40;3.33;;;6.70;99.90;;;;;;4954279;28;20050;-88
2022/01/22 15:25:06;;;;;;;13.27;2.80;;;6.70;99.90;;;;;;4972983;28;20042;-88
2022/01/22 15:27:32;;;;;;;12.27;3.50;;;6.70;99.90;;;;;;4974449;28;20051;-87
2022/01/22 15:30:10;;;;;;;15.32;4.22;;;6.70;99.90;;;;;;4958458;28;20380;-88
2022/01/22 15:32:48;;;;;;;11.32;2.85;;;6.70;99.90;;;;;;4974358;28;20055;-88
2022/01/22 15:35:17;;;;;;;9.38;2.88;;;6.60;99.90;;;;;;4974477;28;20042;-88
2022/01/22 15:37:50;;;;;;;10.52;2.50;;;6.60;99.90;;;;;;4958242;28;20046;-89
2022/01/22 15:40:18;;;;;;;9.88;2.45;;;6.60;99.90;;;;;;4975785;28;20387;-88
2022/01/22 15:42:44;;;;;;;15.68;2.95;;;6.60;99.90;;;;;;4974264;28;20043;-88
2022/01/22 15:45:10;;;;;;;8.88;2.53;;;6.60;99.90;;;;;;4974016;28;20153;-87
2022/01/22 15:47:36;;;;;;;12.43;2.25;;;6.50;99.90;;;;;;4958000;28;20133;-88
2022/01/22 15:50:03;;;;;;;11.50;3.15;;;6.50;99.90;;;;;;4975364;28;20070;-87
2022/01/22 15:52:30;;;;;;;11.15;2.92;;;6.60;99.90;;;;;;4973996;28;20522;-87
2022/01/22 15:54:56;;;;;;;12.75;2.80;;;6.50;99.90;;;;;;4957390;28;20043;-88
2022/01/22 15:57:22;;;;;;;9.30;2.95;;;6.50;99.90;;;;;;4956828;28;20079;-89
2022/01/22 15:59:48;;;;;;;6.65;2.03;;;6.50;99.90;;;;;;4973579;28;20511;-89
2022/01/22 16:02:13;;;;;;;8.52;1.70;;;6.50;99.90;;;;;;4972930;28;20121;-88
2022/01/22 16:04:40;;;;;;;9.05;1.35;;;6.40;99.90;;;;;;4973361;28;20046;-89
2022/01/22 16:07:38;;;;;;;3.42;1.00;;;6.40;99.90;;;;;;4970370;28;20046;-89
2022/01/22 16:09:57;;;;;;;6.00;1.38;;;6.40;99.90;;;;;;4986955;28;20054;-87
2022/01/22 16:12:25;;;;;;;4.47;1.80;;;6.30;99.90;;;;;;4992398;28;20072;-88
2022/01/22 16:14:52;;;;;;;5.65;1.60;;;6.30;99.90;;;;;;4985622;28;20495;-89
2022/01/22 16:17:23;;;;;;;10.00;2.05;;;6.30;99.90;;;;;;4960379;28;20398;-88
2022/01/22 16:19:50;;;;;;;8.48;1.50;;;6.20;99.90;;;;;;4976593;28;20050;-88
2022/01/22 16:22:17;;;;;;;11.77;2.20;;;6.20;99.90;;;;;;4974126;28;20043;-86
2022/01/22 16:24:43;;;;;;;10.57;2.40;;;6.20;99.90;;;;;;4956880;28;20086;-85
2022/01/22 16:27:09;;;;;;;10.95;3.38;;;6.20;99.90;;;;;;4972658;28;20109;-87
2022/01/22 16:29:35;;;;;;;15.50;4.47;;;6.20;99.90;;;;;;4972240;28;20097;-86
2022/01/22 16:32:01;;;;;;;9.43;2.50;;;6.20;99.90;;;;;;4971418;28;20185;-87
2022/01/22 16:34:27;;;;;;;10.18;3.80;;;6.20;99.90;;;;;;4971768;28;20134;-86
2022/01/22 16:36:52;;;;;;;16.10;4.55;;;6.20;99.90;;;;;;4972395;28;20035;-87
2022/01/22 16:39:18;;;;;;;12.63;4.68;;;6.10;99.90;;;;;;4972576;28;20487;-86
2022/01/22 16:41:46;;;;;;;15.35;3.80;;;6.20;99.90;;;;;;4955988;28;20043;-86
2022/01/22 16:55:11;;;;;;;7.57;2.70;;;6.10;99.90;;;;;;4972363;28;20043;-84
2022/01/22 16:57:42;;;;;;;8.93;2.90;;;6.10;99.90;;;;;;4952949;28;20050;-84
2022/01/22 17:00:11;;;;;;;7.20;3.33;;;6.10;99.90;;;;;;4952502;28;20043;-84
2022/01/22 17:02:37;;;;;;;13.00;4.25;;;6.10;99.90;;;;;;4952347;29;20515;-85
2022/01/22 17:05:10;;;;;;;12.23;4.15;;;6.10;99.90;;;;;;4952755;29;20407;-83
2022/01/22 17:07:43;;;;;;;14.95;5.03;;;6.10;99.90;;;;;;4952741;28;20445;-84
2022/01/22 17:10:23;;;;;;;7.88;3.85;;;6.10;99.90;;;;;;4936898;29;20085;-84
2022/01/22 17:15:34;;;;;;;7.80;4.28;;;6.10;99.90;;;;;;4952323;28;20055;-85
2022/01/22 17:18:00;;;;;;;11.48;4.13;;;6.10;99.90;;;;;;4952265;28;20047;-85
2022/01/22 17:20:25;;;;;;;12.68;3.50;;;6.10;99.90;;;;;;4951919;29;20135;-86
2022/01/22 17:22:51;;;;;;;12.35;3.70;;;6.10;99.90;;;;;;4951874;29;20050;-85
2022/01/22 17:25:17;;;;;;;13.88;3.10;;;6.10;99.90;;;;;;4953442;28;20047;-84
2022/01/22 17:27:44;;;;;;;11.13;3.30;;;6.10;99.90;;;;;;4951818;29;20048;-85
2022/01/22 17:30:10;;;;;;;16.05;7.28;;;6.10;99.90;;;;;;4952124;29;20153;-85
2022/01/22 17:32:35;;;;;;;25.95;10.88;;;6.10;99.90;;;;;;4935595;29;20087;-86
2022/01/22 17:35:01;;;;;;;12.32;2.97;;;6.20;99.90;;;;;;4966941;28;20071;-86
2022/01/22 17:37:27;;;;;;;16.33;3.35;;;6.20;99.90;;;;;;4970378;28;20340;-83
2022/01/22 17:39:53;;;;;;;11.13;3.45;;;6.10;99.90;;;;;;4970226;28;20813;-85
2022/01/22 17:42:21;;;;;;;8.57;3.83;;;6.10;99.90;;;;;;4970474;28;20106;-86
2022/01/22 17:44:50;;;;;;;8.07;3.22;;;6.10;99.90;;;;;;4973685;28;20046;-86
2022/01/22 17:47:17;;;;;;;17.05;6.90;;;6.10;99.90;;;;;;4973816;28;20082;-84
2022/01/22 17:49:44;;;;;;;10.77;4.40;;;6.10;99.90;;;;;;4957443;28;20097;-84
2022/01/22 17:52:09;;;;;;;12.55;5.43;;;6.10;99.90;;;;;;4973122;28;20054;-85
2022/01/22 17:54:35;;;;;;;13.15;3.92;;;6.10;99.90;;;;;;4973141;28;20466;-85
2022/01/22 17:57:02;;;;;;;16.52;4.60;;;6.10;99.90;;;;;;4973638;28;20046;-85
2022/01/22 17:59:28;;;;;;;12.82;5.15;;;6.10;99.90;;;;;;4973785;28;20052;-84
2022/01/22 18:01:54;;;;;;;11.48;4.28;;;6.10;99.90;;;;;;4973129;28;20109;-86
2022/01/22 18:04:20;;;;;;;14.20;4.70;;;6.10;99.90;;;;;;4973651;28;20085;-86
2022/01/22 18:06:46;;;;;;;17.48;7.13;;;6.10;99.90;;;;;;4973488;28;20529;-84
2022/01/22 18:09:11;;;;;;;11.13;3.67;;;6.10;99.90;;;;;;4973741;28;20039;-85
2022/01/22 18:11:40;;;;;;;10.15;3.35;;;6.00;99.90;;;;;;4974871;28;20102;-85
2022/01/22 18:14:06;;;;;;;7.97;2.33;;;6.10;99.90;;;;;;4975039;28;20043;-85
2022/01/22 18:16:33;;;;;;;8.10;3.05;;;6.00;99.90;;;;;;4975003;28;20045;-85
2022/01/22 18:18:59;;;;;;;10.15;2.90;;;6.00;99.90;;;;;;4958737;28;20490;-84
2022/01/22 18:21:25;;;;;;;6.47;2.45;;;6.00;99.90;;;;;;4958653;28;20096;-85
2022/01/22 18:23:51;;;;;;;8.63;3.17;;;6.00;99.90;;;;;;4975136;28;20054;-85
2022/01/22 18:26:17;;;;;;;9.48;3.85;;;6.00;99.90;;;;;;4974765;28;20050;-84
2022/01/22 18:28:42;;;;;;;12.57;3.08;;;6.00;99.90;;;;;;4974786;28;20043;-84
2022/01/22 18:31:11;;;;;;;8.68;3.33;;;6.00;99.90;;;;;;4958804;28;20102;-83
2022/01/22 18:33:38;;;;;;;8.27;3.30;;;6.00;99.90;;;;;;4974570;28;20584;-83
2022/01/22 18:36:04;;;;;;;8.10;2.90;;;5.90;99.90;;;;;;4974579;28;20082;-84
2022/01/22 18:38:30;;;;;;;10.73;3.30;;;5.90;99.90;;;;;;4974514;28;20094;-84
2022/01/22 18:41:01;;;;;;;10.27;3.00;;;6.00;99.90;;;;;;4974553;28;20071;-85
2022/01/22 18:43:26;;;;;;;14.07;3.10;;;5.90;99.90;;;;;;4974844;28;20061;-84
2022/01/22 18:45:53;;;;;;;12.02;3.42;;;6.00;99.90;;;;;;4974568;28;20479;-83
2022/01/22 18:48:21;;;;;;;10.55;3.50;;;5.90;99.90;;;;;;4974363;28;20046;-82
2022/01/22 18:50:47;;;;;;;12.52;3.47;;;5.90;99.90;;;;;;4974381;28;20043;-85
2022/01/22 18:53:17;;;;;;;13.40;5.60;;;5.90;99.90;;;;;;4974319;28;20035;-84
2022/01/22 18:55:44;;;;;;;12.32;5.40;;;5.90;99.90;;;;;;4973830;28;20078;-82
2022/01/22 18:58:10;;;;;;;10.68;3.28;;;5.90;99.90;;;;;;4974733;28;20054;-84
2022/01/22 19:00:35;;;;;;;9.05;3.10;;;5.90;99.90;;;;;;4974271;28;20125;-84
2022/01/22 19:03:01;;;;;;;11.32;4.78;;;5.90;99.90;;;;;;4958113;28;20038;-84
2022/01/22 19:05:26;;;;;;;9.40;2.70;;;5.90;99.90;;;;;;4958341;28;20078;-84
2022/01/22 19:07:52;;;;;;;11.05;3.30;;;5.90;99.90;;;;;;4974153;28;20462;-83
2022/01/22 19:10:18;;;;;;;11.65;2.92;;;5.90;99.90;;;;;;4974095;28;20046;-84
2022/01/22 19:12:43;;;;;;;16.30;3.47;;;5.90;99.90;;;;;;4974169;28;20046;-83